sensor_id;sensor_type;location;lat;lon;timestamp;P1;durP1;ratioP1;P2;durP2;ratioP2
46447;SDS011;32145;50.390;30.778;2023-03-30T00:00:49;4.38;;;2.15;;
46447;SDS011;32145;50.390;30.778;2023-03-30T00:03:45;4.80;;;2.35;;
46447;SDS011;32145;50.390;30.778;2023-03-30T00:06:42;5.25;;;2.40;;
46447;SDS011;32145;50.390;30.778;2023-03-30T00:09:40;3.88;;;2.00;;
46447;SDS011;32145;50.390;30.778;2023-03-30T00:12:36;4.90;;;2.15;;
46447;SDS011;32145;50.390;30.778;2023-03-30T00:15:33;5.38;;;2.20;;
46447;SDS011;32145;50.390;30.778;2023-03-30T00:18:31;3.83;;;1.90;;
46447;SDS011;32145;50.390;30.778;2023-03-30T00:21:27;3.60;;;1.92;;
46447;SDS011;32145;50.390;30.778;2023-03-30T00:24:24;4.03;;;1.85;;
46447;SDS011;32145;50.390;30.778;2023-03-30T00:27:22;3.00;;;1.85;;
46447;SDS011;32145;50.390;30.778;2023-03-30T00:30:18;3.40;;;1.80;;
46447;SDS011;32145;50.390;30.778;2023-03-30T00:33:15;4.97;;;1.80;;
46447;SDS011;32145;50.390;30.778;2023-03-30T00:36:11;3.55;;;1.75;;
46447;SDS011;32145;50.390;30.778;2023-03-30T00:39:06;3.60;;;2.00;;
46447;SDS011;32145;50.390;30.778;2023-03-30T00:42:00;3.33;;;1.73;;
46447;SDS011;32145;50.390;30.778;2023-03-30T00:45:04;3.45;;;1.70;;
46447;SDS011;32145;50.390;30.778;2023-03-30T00:48:08;2.88;;;1.60;;
46447;SDS011;32145;50.390;30.778;2023-03-30T00:51:05;3.28;;;1.80;;
46447;SDS011;32145;50.390;30.778;2023-03-30T00:54:02;3.58;;;1.48;;
46447;SDS011;32145;50.390;30.778;2023-03-30T00:57:00;3.25;;;1.90;;
46447;SDS011;32145;50.390;30.778;2023-03-30T00:59:57;3.58;;;1.70;;
46447;SDS011;32145;50.390;30.778;2023-03-30T01:02:55;4.10;;;2.28;;
46447;SDS011;32145;50.390;30.778;2023-03-30T01:05:56;3.35;;;1.90;;
46447;SDS011;32145;50.390;30.778;2023-03-30T01:08:54;4.22;;;2.13;;
46447;SDS011;32145;50.390;30.778;2023-03-30T01:11:51;2.47;;;1.60;;
46447;SDS011;32145;50.390;30.778;2023-03-30T01:14:48;3.10;;;1.80;;
46447;SDS011;32145;50.390;30.778;2023-03-30T01:17:47;4.38;;;1.90;;
46447;SDS011;32145;50.390;30.778;2023-03-30T01:20:58;3.13;;;1.65;;
46447;SDS011;32145;50.390;30.778;2023-03-30T01:31:11;3.88;;;1.98;;
46447;SDS011;32145;50.390;30.778;2023-03-30T01:34:23;3.35;;;1.60;;
46447;SDS011;32145;50.390;30.778;2023-03-30T01:41:04;4.53;;;1.80;;
46447;SDS011;32145;50.390;30.778;2023-03-30T01:44:07;4.00;;;1.85;;
46447;SDS011;32145;50.390;30.778;2023-03-30T01:47:11;3.60;;;1.80;;
46447;SDS011;32145;50.390;30.778;2023-03-30T01:50:14;2.83;;;1.88;;
46447;SDS011;32145;50.390;30.778;2023-03-30T01:53:14;4.40;;;1.88;;
46447;SDS011;32145;50.390;30.778;2023-03-30T01:56:12;3.00;;;1.65;;
46447;SDS011;32145;50.390;30.778;2023-03-30T01:59:15;4.65;;;2.08;;
46447;SDS011;32145;50.390;30.778;2023-03-30T02:02:15;4.38;;;1.92;;
46447;SDS011;32145;50.390;30.778;2023-03-30T02:05:13;3.10;;;1.70;;
46447;SDS011;32145;50.390;30.778;2023-03-30T02:08:14;3.60;;;1.90;;
46447;SDS011;32145;50.390;30.778;2023-03-30T02:11:13;4.68;;;1.90;;
46447;SDS011;32145;50.390;30.778;2023-03-30T02:14:10;5.07;;;2.42;;
46447;SDS011;32145;50.390;30.778;2023-03-30T02:17:10;5.72;;;2.22;;
46447;SDS011;32145;50.390;30.778;2023-03-30T02:20:11;4.30;;;2.08;;
46447;SDS011;32145;50.390;30.778;2023-03-30T02:23:08;4.38;;;2.20;;
46447;SDS011;32145;50.390;30.778;2023-03-30T02:26:04;4.68;;;2.08;;
46447;SDS011;32145;50.390;30.778;2023-03-30T02:29:02;4.80;;;2.10;;
46447;SDS011;32145;50.390;30.778;2023-03-30T02:31:56;4.32;;;2.30;;
46447;SDS011;32145;50.390;30.778;2023-03-30T02:35:05;3.63;;;1.88;;
46447;SDS011;32145;50.390;30.778;2023-03-30T02:38:14;4.65;;;2.22;;
46447;SDS011;32145;50.390;30.778;2023-03-30T02:41:26;3.90;;;1.90;;
46447;SDS011;32145;50.390;30.778;2023-03-30T02:44:41;3.72;;;2.22;;
46447;SDS011;32145;50.390;30.778;2023-03-30T02:47:45;4.45;;;2.20;;
46447;SDS011;32145;50.390;30.778;2023-03-30T02:50:53;4.28;;;2.03;;
46447;SDS011;32145;50.390;30.778;2023-03-30T02:53:55;4.72;;;2.25;;
46447;SDS011;32145;50.390;30.778;2023-03-30T02:56:55;3.40;;;2.00;;
46447;SDS011;32145;50.390;30.778;2023-03-30T03:00:01;6.22;;;2.45;;
46447;SDS011;32145;50.390;30.778;2023-03-30T03:03:03;4.60;;;2.10;;
46447;SDS011;32145;50.390;30.778;2023-03-30T03:06:05;6.65;;;3.15;;
46447;SDS011;32145;50.390;30.778;2023-03-30T03:09:02;5.63;;;2.88;;
46447;SDS011;32145;50.390;30.778;2023-03-30T03:11:59;5.55;;;2.83;;
46447;SDS011;32145;50.390;30.778;2023-03-30T03:14:55;7.28;;;2.95;;
46447;SDS011;32145;50.390;30.778;2023-03-30T03:17:53;7.45;;;2.80;;
46447;SDS011;32145;50.390;30.778;2023-03-30T03:20:49;6.88;;;3.03;;
46447;SDS011;32145;50.390;30.778;2023-03-30T03:23:45;7.93;;;3.00;;
46447;SDS011;32145;50.390;30.778;2023-03-30T03:26:42;5.38;;;2.85;;
46447;SDS011;32145;50.390;30.778;2023-03-30T03:29:38;5.93;;;2.97;;
46447;SDS011;32145;50.390;30.778;2023-03-30T03:32:34;6.30;;;3.40;;
46447;SDS011;32145;50.390;30.778;2023-03-30T03:35:30;5.55;;;2.72;;
46447;SDS011;32145;50.390;30.778;2023-03-30T03:38:25;5.85;;;2.95;;
46447;SDS011;32145;50.390;30.778;2023-03-30T03:41:19;5.60;;;2.80;;
46447;SDS011;32145;50.390;30.778;2023-03-30T03:44:14;6.90;;;3.30;;
46447;SDS011;32145;50.390;30.778;2023-03-30T03:47:08;5.20;;;2.85;;
46447;SDS011;32145;50.390;30.778;2023-03-30T03:50:02;4.97;;;2.85;;
46447;SDS011;32145;50.390;30.778;2023-03-30T03:53:00;4.88;;;2.70;;
46447;SDS011;32145;50.390;30.778;2023-03-30T03:55:57;5.28;;;2.92;;
46447;SDS011;32145;50.390;30.778;2023-03-30T03:58:51;6.70;;;3.20;;
46447;SDS011;32145;50.390;30.778;2023-03-30T04:01:45;6.13;;;2.95;;
46447;SDS011;32145;50.390;30.778;2023-03-30T04:04:39;6.32;;;3.35;;
46447;SDS011;32145;50.390;30.778;2023-03-30T04:07:34;4.65;;;2.25;;
46447;SDS011;32145;50.390;30.778;2023-03-30T04:10:30;4.05;;;2.70;;
46447;SDS011;32145;50.390;30.778;2023-03-30T04:13:24;5.53;;;3.15;;
46447;SDS011;32145;50.390;30.778;2023-03-30T04:16:19;6.25;;;3.03;;
46447;SDS011;32145;50.390;30.778;2023-03-30T04:19:13;6.25;;;2.83;;
46447;SDS011;32145;50.390;30.778;2023-03-30T04:22:07;5.63;;;2.70;;
46447;SDS011;32145;50.390;30.778;2023-03-30T04:25:01;5.90;;;2.78;;
46447;SDS011;32145;50.390;30.778;2023-03-30T04:27:58;5.70;;;2.92;;
46447;SDS011;32145;50.390;30.778;2023-03-30T04:30:55;4.68;;;2.88;;
46447;SDS011;32145;50.390;30.778;2023-03-30T04:33:50;5.80;;;3.30;;
46447;SDS011;32145;50.390;30.778;2023-03-30T04:36:45;5.35;;;2.95;;
46447;SDS011;32145;50.390;30.778;2023-03-30T04:39:39;5.68;;;2.92;;
46447;SDS011;32145;50.390;30.778;2023-03-30T04:42:34;5.47;;;3.10;;
46447;SDS011;32145;50.390;30.778;2023-03-30T04:45:32;5.70;;;3.13;;
46447;SDS011;32145;50.390;30.778;2023-03-30T04:48:28;6.20;;;3.30;;
46447;SDS011;32145;50.390;30.778;2023-03-30T04:51:25;5.68;;;3.35;;
46447;SDS011;32145;50.390;30.778;2023-03-30T04:54:21;7.63;;;3.38;;
46447;SDS011;32145;50.390;30.778;2023-03-30T04:57:18;6.82;;;3.55;;
46447;SDS011;32145;50.390;30.778;2023-03-30T05:00:15;6.32;;;3.28;;
46447;SDS011;32145;50.390;30.778;2023-03-30T05:03:13;6.05;;;3.08;;
46447;SDS011;32145;50.390;30.778;2023-03-30T05:06:09;5.55;;;2.90;;
46447;SDS011;32145;50.390;30.778;2023-03-30T05:09:06;8.40;;;3.22;;
46447;SDS011;32145;50.390;30.778;2023-03-30T05:12:02;5.18;;;2.80;;
46447;SDS011;32145;50.390;30.778;2023-03-30T05:14:58;4.38;;;2.17;;
46447;SDS011;32145;50.390;30.778;2023-03-30T05:17:55;4.72;;;2.42;;
46447;SDS011;32145;50.390;30.778;2023-03-30T05:20:56;3.60;;;2.20;;
46447;SDS011;32145;50.390;30.778;2023-03-30T05:23:52;5.32;;;2.50;;
46447;SDS011;32145;50.390;30.778;2023-03-30T05:26:49;5.47;;;2.53;;
46447;SDS011;32145;50.390;30.778;2023-03-30T05:29:45;4.88;;;2.13;;
46447;SDS011;32145;50.390;30.778;2023-03-30T05:32:41;4.47;;;2.40;;
46447;SDS011;32145;50.390;30.778;2023-03-30T05:35:38;5.57;;;2.40;;
46447;SDS011;32145;50.390;30.778;2023-03-30T05:38:35;5.80;;;2.55;;
46447;SDS011;32145;50.390;30.778;2023-03-30T05:41:32;5.90;;;2.40;;
46447;SDS011;32145;50.390;30.778;2023-03-30T05:44:29;5.20;;;2.60;;
46447;SDS011;32145;50.390;30.778;2023-03-30T05:47:25;3.85;;;1.90;;
46447;SDS011;32145;50.390;30.778;2023-03-30T05:50:22;5.88;;;2.63;;
46447;SDS011;32145;50.390;30.778;2023-03-30T05:53:18;5.15;;;2.10;;
46447;SDS011;32145;50.390;30.778;2023-03-30T05:56:16;4.65;;;1.90;;
46447;SDS011;32145;50.390;30.778;2023-03-30T05:59:12;3.88;;;1.58;;
46447;SDS011;32145;50.390;30.778;2023-03-30T06:02:09;3.63;;;1.95;;
46447;SDS011;32145;50.390;30.778;2023-03-30T06:05:06;4.03;;;2.22;;
46447;SDS011;32145;50.390;30.778;2023-03-30T06:08:02;4.47;;;1.85;;
46447;SDS011;32145;50.390;30.778;2023-03-30T06:10:59;4.82;;;1.92;;
46447;SDS011;32145;50.390;30.778;2023-03-30T06:13:57;3.05;;;1.77;;
46447;SDS011;32145;50.390;30.778;2023-03-30T06:16:53;3.65;;;1.90;;
46447;SDS011;32145;50.390;30.778;2023-03-30T06:19:49;5.32;;;2.40;;
46447;SDS011;32145;50.390;30.778;2023-03-30T06:22:46;3.80;;;1.77;;
46447;SDS011;32145;50.390;30.778;2023-03-30T06:25:46;5.53;;;2.00;;
46447;SDS011;32145;50.390;30.778;2023-03-30T06:28:43;4.00;;;1.80;;
46447;SDS011;32145;50.390;30.778;2023-03-30T06:31:40;4.57;;;1.80;;
46447;SDS011;32145;50.390;30.778;2023-03-30T06:34:37;4.85;;;2.13;;
46447;SDS011;32145;50.390;30.778;2023-03-30T06:37:31;3.63;;;1.67;;
46447;SDS011;32145;50.390;30.778;2023-03-30T06:40:25;7.22;;;1.67;;
46447;SDS011;32145;50.390;30.778;2023-03-30T06:43:23;4.10;;;1.55;;
46447;SDS011;32145;50.390;30.778;2023-03-30T06:46:20;3.80;;;1.80;;
46447;SDS011;32145;50.390;30.778;2023-03-30T06:49:17;3.40;;;1.70;;
46447;SDS011;32145;50.390;30.778;2023-03-30T06:52:14;4.65;;;1.67;;
46447;SDS011;32145;50.390;30.778;2023-03-30T06:55:10;3.55;;;1.50;;
46447;SDS011;32145;50.390;30.778;2023-03-30T06:58:07;3.60;;;1.98;;
46447;SDS011;32145;50.390;30.778;2023-03-30T07:01:13;3.22;;;1.40;;
46447;SDS011;32145;50.390;30.778;2023-03-30T07:04:10;3.33;;;1.30;;
46447;SDS011;32145;50.390;30.778;2023-03-30T07:07:08;3.22;;;1.42;;
46447;SDS011;32145;50.390;30.778;2023-03-30T07:10:05;2.25;;;1.10;;
46447;SDS011;32145;50.390;30.778;2023-03-30T07:13:02;2.00;;;1.08;;
46447;SDS011;32145;50.390;30.778;2023-03-30T07:15:56;2.63;;;1.35;;
46447;SDS011;32145;50.390;30.778;2023-03-30T07:18:50;2.53;;;1.25;;
46447;SDS011;32145;50.390;30.778;2023-03-30T07:21:45;2.30;;;1.20;;
46447;SDS011;32145;50.390;30.778;2023-03-30T07:24:41;3.67;;;1.50;;
46447;SDS011;32145;50.390;30.778;2023-03-30T07:27:35;3.08;;;1.50;;
46447;SDS011;32145;50.390;30.778;2023-03-30T07:30:30;3.25;;;1.58;;
46447;SDS011;32145;50.390;30.778;2023-03-30T07:33:24;2.55;;;1.38;;
46447;SDS011;32145;50.390;30.778;2023-03-30T07:36:18;2.75;;;1.60;;
46447;SDS011;32145;50.390;30.778;2023-03-30T07:39:13;3.45;;;1.40;;
46447;SDS011;32145;50.390;30.778;2023-03-30T07:42:08;2.35;;;1.30;;
46447;SDS011;32145;50.390;30.778;2023-03-30T07:45:02;2.53;;;1.23;;
46447;SDS011;32145;50.390;30.778;2023-03-30T07:47:57;2.97;;;1.38;;
46447;SDS011;32145;50.390;30.778;2023-03-30T07:50:58;2.80;;;1.50;;
46447;SDS011;32145;50.390;30.778;2023-03-30T07:53:55;2.60;;;1.27;;
46447;SDS011;32145;50.390;30.778;2023-03-30T07:56:51;3.17;;;1.23;;
46447;SDS011;32145;50.390;30.778;2023-03-30T07:59:49;2.25;;;1.25;;
46447;SDS011;32145;50.390;30.778;2023-03-30T08:02:45;2.70;;;1.45;;
46447;SDS011;32145;50.390;30.778;2023-03-30T08:05:42;2.30;;;1.35;;
46447;SDS011;32145;50.390;30.778;2023-03-30T08:08:38;3.72;;;1.48;;
46447;SDS011;32145;50.390;30.778;2023-03-30T08:11:34;4.47;;;1.50;;
46447;SDS011;32145;50.390;30.778;2023-03-30T08:14:31;4.03;;;1.50;;
46447;SDS011;32145;50.390;30.778;2023-03-30T08:17:29;2.13;;;1.30;;
46447;SDS011;32145;50.390;30.778;2023-03-30T08:20:25;2.67;;;1.40;;
46447;SDS011;32145;50.390;30.778;2023-03-30T08:23:21;3.78;;;1.58;;
46447;SDS011;32145;50.390;30.778;2023-03-30T08:26:17;3.30;;;1.58;;
46447;SDS011;32145;50.390;30.778;2023-03-30T08:29:14;2.10;;;1.30;;
46447;SDS011;32145;50.390;30.778;2023-03-30T08:32:10;2.67;;;1.80;;
46447;SDS011;32145;50.390;30.778;2023-03-30T08:35:08;3.90;;;1.45;;
46447;SDS011;32145;50.390;30.778;2023-03-30T08:38:05;3.20;;;1.42;;
46447;SDS011;32145;50.390;30.778;2023-03-30T08:41:01;2.75;;;1.60;;
46447;SDS011;32145;50.390;30.778;2023-03-30T08:44:16;4.78;;;1.92;;
46447;SDS011;32145;50.390;30.778;2023-03-30T08:47:25;5.97;;;2.10;;
46447;SDS011;32145;50.390;30.778;2023-03-30T08:50:30;3.78;;;1.73;;
46447;SDS011;32145;50.390;30.778;2023-03-30T08:53:29;2.90;;;1.55;;
46447;SDS011;32145;50.390;30.778;2023-03-30T08:56:29;2.75;;;1.75;;
46447;SDS011;32145;50.390;30.778;2023-03-30T08:59:29;2.83;;;1.27;;
46447;SDS011;32145;50.390;30.778;2023-03-30T09:02:36;3.65;;;1.67;;
46447;SDS011;32145;50.390;30.778;2023-03-30T09:05:39;5.05;;;2.45;;
46447;SDS011;32145;50.390;30.778;2023-03-30T09:08:40;2.50;;;1.52;;
46447;SDS011;32145;50.390;30.778;2023-03-30T09:11:35;4.63;;;1.70;;
46447;SDS011;32145;50.390;30.778;2023-03-30T09:14:31;4.50;;;1.70;;
46447;SDS011;32145;50.390;30.778;2023-03-30T09:17:29;3.63;;;1.60;;
46447;SDS011;32145;50.390;30.778;2023-03-30T09:20:27;4.50;;;1.90;;
46447;SDS011;32145;50.390;30.778;2023-03-30T09:23:24;2.85;;;1.50;;
46447;SDS011;32145;50.390;30.778;2023-03-30T09:26:19;2.53;;;1.40;;
46447;SDS011;32145;50.390;30.778;2023-03-30T09:29:20;3.85;;;1.50;;
46447;SDS011;32145;50.390;30.778;2023-03-30T09:32:21;2.80;;;1.42;;
46447;SDS011;32145;50.390;30.778;2023-03-30T09:35:33;3.63;;;1.60;;
46447;SDS011;32145;50.390;30.778;2023-03-30T09:38:29;3.85;;;1.40;;
46447;SDS011;32145;50.390;30.778;2023-03-30T09:41:37;3.05;;;1.50;;
46447;SDS011;32145;50.390;30.778;2023-03-30T09:44:43;2.85;;;1.20;;
46447;SDS011;32145;50.390;30.778;2023-03-30T09:47:43;3.05;;;1.30;;
46447;SDS011;32145;50.390;30.778;2023-03-30T09:50:40;3.08;;;1.50;;
46447;SDS011;32145;50.390;30.778;2023-03-30T09:53:40;4.63;;;1.80;;
46447;SDS011;32145;50.390;30.778;2023-03-30T09:56:39;3.03;;;1.60;;
46447;SDS011;32145;50.390;30.778;2023-03-30T09:59:36;2.78;;;1.42;;
46447;SDS011;32145;50.390;30.778;2023-03-30T10:02:33;2.83;;;1.40;;
46447;SDS011;32145;50.390;30.778;2023-03-30T10:05:24;3.90;;;1.30;;
46447;SDS011;32145;50.390;30.778;2023-03-30T10:08:19;3.55;;;1.40;;
46447;SDS011;32145;50.390;30.778;2023-03-30T10:11:11;4.57;;;1.70;;
46447;SDS011;32145;50.390;30.778;2023-03-30T10:14:09;3.72;;;1.63;;
46447;SDS011;32145;50.390;30.778;2023-03-30T10:17:16;5.05;;;1.73;;
46447;SDS011;32145;50.390;30.778;2023-03-30T10:20:14;4.00;;;1.73;;
46447;SDS011;32145;50.390;30.778;2023-03-30T10:23:15;3.67;;;1.60;;
46447;SDS011;32145;50.390;30.778;2023-03-30T10:26:12;3.08;;;1.48;;
46447;SDS011;32145;50.390;30.778;2023-03-30T10:29:10;3.25;;;1.60;;
46447;SDS011;32145;50.390;30.778;2023-03-30T10:32:07;3.20;;;1.30;;
46447;SDS011;32145;50.390;30.778;2023-03-30T10:35:07;2.92;;;1.48;;
46447;SDS011;32145;50.390;30.778;2023-03-30T10:37:56;3.05;;;1.70;;
46447;SDS011;32145;50.390;30.778;2023-03-30T10:40:58;2.72;;;1.20;;
46447;SDS011;32145;50.390;30.778;2023-03-30T10:43:58;2.80;;;1.27;;
46447;SDS011;32145;50.390;30.778;2023-03-30T10:47:06;5.00;;;1.35;;
46447;SDS011;32145;50.390;30.778;2023-03-30T10:50:16;1.80;;;1.13;;
46447;SDS011;32145;50.390;30.778;2023-03-30T10:53:25;3.25;;;1.35;;
46447;SDS011;32145;50.390;30.778;2023-03-30T10:56:24;3.65;;;1.60;;
46447;SDS011;32145;50.390;30.778;2023-03-30T10:59:39;2.55;;;1.25;;
46447;SDS011;32145;50.390;30.778;2023-03-30T11:02:58;2.17;;;1.15;;
46447;SDS011;32145;50.390;30.778;2023-03-30T11:06:02;2.17;;;1.10;;
46447;SDS011;32145;50.390;30.778;2023-03-30T11:09:03;2.20;;;1.05;;
46447;SDS011;32145;50.390;30.778;2023-03-30T11:14:59;3.17;;;1.08;;
46447;SDS011;32145;50.390;30.778;2023-03-30T11:18:01;1.70;;;1.02;;
46447;SDS011;32145;50.390;30.778;2023-03-30T11:21:00;2.35;;;1.15;;
46447;SDS011;32145;50.390;30.778;2023-03-30T11:24:00;2.30;;;1.10;;
46447;SDS011;32145;50.390;30.778;2023-03-30T11:27:04;3.13;;;1.35;;
46447;SDS011;32145;50.390;30.778;2023-03-30T11:30:08;2.05;;;1.23;;
46447;SDS011;32145;50.390;30.778;2023-03-30T11:33:10;1.67;;;1.00;;
46447;SDS011;32145;50.390;30.778;2023-03-30T11:36:13;3.10;;;1.10;;
46447;SDS011;32145;50.390;30.778;2023-03-30T11:39:11;2.20;;;1.23;;
46447;SDS011;32145;50.390;30.778;2023-03-30T11:42:12;2.13;;;0.98;;
46447;SDS011;32145;50.390;30.778;2023-03-30T11:45:17;2.75;;;1.10;;
46447;SDS011;32145;50.390;30.778;2023-03-30T11:48:28;1.75;;;1.00;;
46447;SDS011;32145;50.390;30.778;2023-03-30T11:51:45;2.63;;;1.00;;
46447;SDS011;32145;50.390;30.778;2023-03-30T11:54:51;2.33;;;1.15;;
46447;SDS011;32145;50.390;30.778;2023-03-30T11:58:02;2.17;;;1.23;;
46447;SDS011;32145;50.390;30.778;2023-03-30T12:01:13;3.35;;;1.10;;
46447;SDS011;32145;50.390;30.778;2023-03-30T12:04:23;2.40;;;1.20;;
46447;SDS011;32145;50.390;30.778;2023-03-30T12:07:29;2.85;;;0.98;;
46447;SDS011;32145;50.390;30.778;2023-03-30T12:10:25;1.73;;;1.00;;
46447;SDS011;32145;50.390;30.778;2023-03-30T12:13:27;1.75;;;1.00;;
46447;SDS011;32145;50.390;30.778;2023-03-30T12:16:26;2.45;;;1.08;;
46447;SDS011;32145;50.390;30.778;2023-03-30T12:19:25;2.38;;;0.90;;
46447;SDS011;32145;50.390;30.778;2023-03-30T12:22:26;2.15;;;1.05;;
46447;SDS011;32145;50.390;30.778;2023-03-30T12:25:23;2.20;;;1.20;;
46447;SDS011;32145;50.390;30.778;2023-03-30T12:28:38;1.90;;;0.82;;
46447;SDS011;32145;50.390;30.778;2023-03-30T12:38:43;2.83;;;1.20;;
46447;SDS011;32145;50.390;30.778;2023-03-30T12:41:46;1.92;;;0.90;;
46447;SDS011;32145;50.390;30.778;2023-03-30T12:44:41;2.80;;;1.20;;
46447;SDS011;32145;50.390;30.778;2023-03-30T12:47:51;2.00;;;1.10;;
46447;SDS011;32145;50.390;30.778;2023-03-30T12:51:11;1.80;;;0.90;;
46447;SDS011;32145;50.390;30.778;2023-03-30T12:54:13;2.95;;;1.05;;
46447;SDS011;32145;50.390;30.778;2023-03-30T12:57:31;3.33;;;1.30;;
46447;SDS011;32145;50.390;30.778;2023-03-30T13:00:35;2.67;;;1.20;;
46447;SDS011;32145;50.390;30.778;2023-03-30T13:03:50;3.90;;;1.25;;
46447;SDS011;32145;50.390;30.778;2023-03-30T13:06:49;1.95;;;1.10;;
46447;SDS011;32145;50.390;30.778;2023-03-30T13:09:53;3.08;;;1.30;;
46447;SDS011;32145;50.390;30.778;2023-03-30T13:12:49;2.72;;;1.05;;
46447;SDS011;32145;50.390;30.778;2023-03-30T13:15:45;1.80;;;1.15;;
46447;SDS011;32145;50.390;30.778;2023-03-30T13:18:39;2.38;;;1.10;;
46447;SDS011;32145;50.390;30.778;2023-03-30T13:21:48;1.90;;;1.10;;
46447;SDS011;32145;50.390;30.778;2023-03-30T13:24:51;2.38;;;1.08;;
46447;SDS011;32145;50.390;30.778;2023-03-30T13:27:49;2.33;;;1.17;;
46447;SDS011;32145;50.390;30.778;2023-03-30T13:30:46;2.05;;;1.00;;
46447;SDS011;32145;50.390;30.778;2023-03-30T13:33:43;2.53;;;1.02;;
46447;SDS011;32145;50.390;30.778;2023-03-30T13:39:44;3.78;;;1.27;;
46447;SDS011;32145;50.390;30.778;2023-03-30T13:42:48;4.40;;;1.13;;
46447;SDS011;32145;50.390;30.778;2023-03-30T13:45:57;2.53;;;1.25;;
46447;SDS011;32145;50.390;30.778;2023-03-30T13:48:59;2.75;;;1.40;;
46447;SDS011;32145;50.390;30.778;2023-03-30T13:52:08;4.13;;;2.08;;
46447;SDS011;32145;50.390;30.778;2023-03-30T13:55:13;2.80;;;1.52;;
46447;SDS011;32145;50.390;30.778;2023-03-30T13:58:14;2.45;;;1.17;;
46447;SDS011;32145;50.390;30.778;2023-03-30T14:01:13;2.40;;;1.10;;
46447;SDS011;32145;50.390;30.778;2023-03-30T14:04:12;2.47;;;1.27;;
46447;SDS011;32145;50.390;30.778;2023-03-30T14:07:10;3.10;;;1.27;;
46447;SDS011;32145;50.390;30.778;2023-03-30T14:10:11;3.47;;;1.40;;
46447;SDS011;32145;50.390;30.778;2023-03-30T14:13:09;2.95;;;1.20;;
46447;SDS011;32145;50.390;30.778;2023-03-30T14:16:06;2.78;;;1.27;;
46447;SDS011;32145;50.390;30.778;2023-03-30T14:19:08;4.43;;;1.35;;
46447;SDS011;32145;50.390;30.778;2023-03-30T14:22:08;2.00;;;1.10;;
46447;SDS011;32145;50.390;30.778;2023-03-30T14:25:03;3.97;;;1.50;;
46447;SDS011;32145;50.390;30.778;2023-03-30T14:28:02;2.47;;;1.15;;
46447;SDS011;32145;50.390;30.778;2023-03-30T14:30:59;2.58;;;1.17;;
46447;SDS011;32145;50.390;30.778;2023-03-30T14:33:51;3.28;;;1.80;;
46447;SDS011;32145;50.390;30.778;2023-03-30T14:36:39;4.55;;;1.50;;
46447;SDS011;32145;50.390;30.778;2023-03-30T14:39:40;3.83;;;1.50;;
46447;SDS011;32145;50.390;30.778;2023-03-30T14:42:38;2.55;;;1.27;;
46447;SDS011;32145;50.390;30.778;2023-03-30T14:45:36;3.90;;;1.20;;
46447;SDS011;32145;50.390;30.778;2023-03-30T14:48:32;3.17;;;1.35;;
46447;SDS011;32145;50.390;30.778;2023-03-30T14:51:34;2.63;;;1.10;;
46447;SDS011;32145;50.390;30.778;2023-03-30T14:54:33;2.63;;;1.33;;
46447;SDS011;32145;50.390;30.778;2023-03-30T14:57:25;2.65;;;1.23;;
46447;SDS011;32145;50.390;30.778;2023-03-30T15:00:23;2.72;;;1.27;;
46447;SDS011;32145;50.390;30.778;2023-03-30T15:03:24;2.65;;;1.30;;
46447;SDS011;32145;50.390;30.778;2023-03-30T15:06:23;3.55;;;1.20;;
46447;SDS011;32145;50.390;30.778;2023-03-30T15:09:22;3.15;;;1.33;;
46447;SDS011;32145;50.390;30.778;2023-03-30T15:12:20;2.50;;;1.30;;
46447;SDS011;32145;50.390;30.778;2023-03-30T15:15:17;3.00;;;1.50;;
46447;SDS011;32145;50.390;30.778;2023-03-30T15:18:18;2.30;;;1.15;;
46447;SDS011;32145;50.390;30.778;2023-03-30T15:21:18;2.10;;;1.00;;
46447;SDS011;32145;50.390;30.778;2023-03-30T15:24:22;2.80;;;1.33;;
46447;SDS011;32145;50.390;30.778;2023-03-30T15:27:19;2.65;;;1.25;;
46447;SDS011;32145;50.390;30.778;2023-03-30T15:30:18;2.78;;;1.40;;
46447;SDS011;32145;50.390;30.778;2023-03-30T15:33:23;2.95;;;1.25;;
46447;SDS011;32145;50.390;30.778;2023-03-30T15:36:23;2.65;;;1.20;;
46447;SDS011;32145;50.390;30.778;2023-03-30T15:39:20;3.03;;;1.33;;
46447;SDS011;32145;50.390;30.778;2023-03-30T15:42:22;3.40;;;1.40;;
46447;SDS011;32145;50.390;30.778;2023-03-30T15:45:20;2.80;;;1.15;;
46447;SDS011;32145;50.390;30.778;2023-03-30T15:48:11;3.47;;;1.30;;
46447;SDS011;32145;50.390;30.778;2023-03-30T15:51:08;2.90;;;1.40;;
46447;SDS011;32145;50.390;30.778;2023-03-30T15:54:10;3.75;;;1.50;;
46447;SDS011;32145;50.390;30.778;2023-03-30T15:57:01;3.72;;;1.73;;
46447;SDS011;32145;50.390;30.778;2023-03-30T16:00:00;4.30;;;2.53;;
46447;SDS011;32145;50.390;30.778;2023-03-30T16:03:00;4.72;;;2.88;;
46447;SDS011;32145;50.390;30.778;2023-03-30T16:05:50;4.40;;;2.92;;
46447;SDS011;32145;50.390;30.778;2023-03-30T16:08:46;7.32;;;3.15;;
46447;SDS011;32145;50.390;30.778;2023-03-30T16:11:42;6.22;;;3.88;;
46447;SDS011;32145;50.390;30.778;2023-03-30T16:14:40;9.07;;;6.00;;
46447;SDS011;32145;50.390;30.778;2023-03-30T16:17:36;18.80;;;9.90;;
46447;SDS011;32145;50.390;30.778;2023-03-30T16:20:33;29.20;;;14.00;;
46447;SDS011;32145;50.390;30.778;2023-03-30T16:23:31;31.95;;;14.70;;
46447;SDS011;32145;50.390;30.778;2023-03-30T16:26:27;26.42;;;11.77;;
46447;SDS011;32145;50.390;30.778;2023-03-30T16:29:24;22.42;;;9.90;;
46447;SDS011;32145;50.390;30.778;2023-03-30T16:32:20;26.02;;;11.38;;
46447;SDS011;32145;50.390;30.778;2023-03-30T16:35:17;21.48;;;9.68;;
46447;SDS011;32145;50.390;30.778;2023-03-30T16:38:13;21.45;;;9.70;;
46447;SDS011;32145;50.390;30.778;2023-03-30T16:41:13;21.48;;;9.30;;
46447;SDS011;32145;50.390;30.778;2023-03-30T16:44:11;20.90;;;8.05;;
46447;SDS011;32145;50.390;30.778;2023-03-30T16:47:05;18.55;;;7.93;;
46447;SDS011;32145;50.390;30.778;2023-03-30T16:50:00;23.05;;;10.40;;
46447;SDS011;32145;50.390;30.778;2023-03-30T16:52:48;22.57;;;9.70;;
46447;SDS011;32145;50.390;30.778;2023-03-30T16:55:45;20.60;;;7.25;;
46447;SDS011;32145;50.390;30.778;2023-03-30T16:58:35;14.00;;;6.43;;
46447;SDS011;32145;50.390;30.778;2023-03-30T17:01:25;14.70;;;5.20;;
46447;SDS011;32145;50.390;30.778;2023-03-30T17:04:16;9.45;;;3.83;;
46447;SDS011;32145;50.390;30.778;2023-03-30T17:07:05;5.65;;;2.50;;
46447;SDS011;32145;50.390;30.778;2023-03-30T17:09:55;4.55;;;2.30;;
46447;SDS011;32145;50.390;30.778;2023-03-30T17:12:44;4.22;;;1.90;;
46447;SDS011;32145;50.390;30.778;2023-03-30T17:15:34;5.68;;;1.75;;
46447;SDS011;32145;50.390;30.778;2023-03-30T17:18:33;3.90;;;1.95;;
46447;SDS011;32145;50.390;30.778;2023-03-30T17:21:28;4.03;;;1.55;;
46447;SDS011;32145;50.390;30.778;2023-03-30T17:24:16;4.07;;;1.90;;
46447;SDS011;32145;50.390;30.778;2023-03-30T17:27:12;3.85;;;1.30;;
46447;SDS011;32145;50.390;30.778;2023-03-30T17:30:14;3.22;;;1.50;;
46447;SDS011;32145;50.390;30.778;2023-03-30T17:33:12;3.47;;;1.55;;
46447;SDS011;32145;50.390;30.778;2023-03-30T17:36:11;2.17;;;1.30;;
46447;SDS011;32145;50.390;30.778;2023-03-30T17:39:11;3.95;;;1.40;;
46447;SDS011;32145;50.390;30.778;2023-03-30T17:45:07;2.15;;;1.10;;
46447;SDS011;32145;50.390;30.778;2023-03-30T17:47:51;3.17;;;1.50;;
46447;SDS011;32145;50.390;30.778;2023-03-30T17:50:40;4.28;;;1.67;;
46447;SDS011;32145;50.390;30.778;2023-03-30T17:53:37;3.05;;;1.35;;
46447;SDS011;32145;50.390;30.778;2023-03-30T17:56:31;4.32;;;1.45;;
46447;SDS011;32145;50.390;30.778;2023-03-30T17:59:25;4.18;;;1.77;;
46447;SDS011;32145;50.390;30.778;2023-03-30T18:02:14;3.58;;;1.70;;
46447;SDS011;32145;50.390;30.778;2023-03-30T18:05:04;4.25;;;1.60;;